Matthews, MO (63867)

4:44 AM CDT on May 25, 2015 (GMT -0500)
Sikeston Ridge | | Change Station
CLOSE
Current Station
Personal Weather Station
Location: Sikeston, MO
Elevation: 326 ft
Nearby Weather Stations

Elev 326 ft 36.89 °N, 89.60 °W | Updated 3 minutes ago

Rain
Rain
68.3 °F
Feels Like 68.3 °F
N
0.0
Wind Variable Wind from SSW
Gusts 3.0 mph

Today
High -- | Low -- °F
--% Chance of Precip.
Yesterday
High -- | Low -- °F
Precip. -- in
5:44 AM 8:06 PM
Waxing Crescent, 47% visible
Pressure 30.02 in
Visibility 10.0 miles
Clouds Scattered Clouds 1000 ft
Mostly Cloudy 9000 ft
Overcast 11000 ft
Dew Point 67 °F
Humidity 96%
Rainfall 0.00 in
Snow Depth Not available.
UV 0.0 out of 12
Pollen 8.10 out of 12
Air Quality Not available.
Flu Activity Sporadic
METAR KCIR 250935Z AUTO 17011G17KT 10SM DZ SCT010 BKN090 OVC110 20/20 A3002 RMK AO2 T02000195

More Conditions Fewer Conditions

Pressure 30.02 in
Visibility 10.0 miles
Clouds Scattered Clouds 1000 ft
Mostly Cloudy 9000 ft
Overcast 11000 ft
Dew Point 67 °F
Humidity 96%
Rainfall 0.00 in
Snow Depth Not available.
UV 0.0 out of 12
Pollen 8.10 out of 12
Air Quality Not available.
Flu Activity Sporadic
METAR KCIR 250935Z AUTO 17011G17KT 10SM DZ SCT010 BKN090 OVC110 20/20 A3002 RMK AO2 T02000195

More Conditions Fewer Conditions

10-Day Weather Forecast

Almanac

Astronomy

May. 25, 2015 Rise Set
Actual Time
Civil Twilight
Nautical Twilight
Astronomical Twilight
Moon
Length of Visible Light
Length of Day
Tomorrow will be .
, % of the Moon is Illuminated

Today's Extremes

State Highs State Lows

Community

WunderPhotos

Upload Photos

1,823,963 photos uploaded!

WunderBlogs® & News

Nearby

Air Quality

  Air Quality AQ Index Pollutant
Not available.

Snow Depth

Station Depth Elevation

Earthquake Activity

City Distance Mag. Time & Date
Minimum magnitude displayed is 2.5.

Coastal Water Temperatures

Place Temperature

Stations

Nearby Weather Stations

Station Location Temp. Windchill Dew Point Humidity Wind Precip. Elev Updated Type